sensor_id;sensor_type;location;lat;lon;timestamp;P1;durP1;ratioP1;P2;durP2;ratioP2
49548;SDS011;35450;44.518;7.466;2024-01-07T00:02:59;3.20;;;0.60;;
49548;SDS011;35450;44.518;7.466;2024-01-07T00:06:03;0.98;;;0.45;;
49548;SDS011;35450;44.518;7.466;2024-01-07T00:09:08;2.67;;;1.00;;
49548;SDS011;35450;44.518;7.466;2024-01-07T00:12:12;2.58;;;1.10;;
49548;SDS011;35450;44.518;7.466;2024-01-07T00:15:16;6.40;;;2.97;;
49548;SDS011;35450;44.518;7.466;2024-01-07T00:18:19;26.05;;;11.15;;
49548;SDS011;35450;44.518;7.466;2024-01-07T00:21:24;28.80;;;12.30;;
49548;SDS011;35450;44.518;7.466;2024-01-07T00:24:28;21.65;;;10.88;;
49548;SDS011;35450;44.518;7.466;2024-01-07T00:27:32;16.20;;;8.85;;
49548;SDS011;35450;44.518;7.466;2024-01-07T00:30:36;12.48;;;6.72;;
49548;SDS011;35450;44.518;7.466;2024-01-07T00:33:40;6.25;;;4.10;;
49548;SDS011;35450;44.518;7.466;2024-01-07T00:36:44;5.78;;;2.70;;
49548;SDS011;35450;44.518;7.466;2024-01-07T00:39:48;5.90;;;2.65;;
49548;SDS011;35450;44.518;7.466;2024-01-07T00:42:52;4.20;;;1.80;;
49548;SDS011;35450;44.518;7.466;2024-01-07T00:45:56;5.80;;;2.15;;
49548;SDS011;35450;44.518;7.466;2024-01-07T00:49:00;5.13;;;2.42;;
49548;SDS011;35450;44.518;7.466;2024-01-07T00:52:04;6.00;;;2.75;;
49548;SDS011;35450;44.518;7.466;2024-01-07T00:55:08;5.25;;;2.13;;
49548;SDS011;35450;44.518;7.466;2024-01-07T00:58:12;5.82;;;3.38;;
49548;SDS011;35450;44.518;7.466;2024-01-07T01:01:16;8.20;;;3.33;;
49548;SDS011;35450;44.518;7.466;2024-01-07T01:04:20;5.28;;;3.17;;
49548;SDS011;35450;44.518;7.466;2024-01-07T01:07:24;6.53;;;4.13;;
49548;SDS011;35450;44.518;7.466;2024-01-07T01:10:28;5.55;;;2.80;;
49548;SDS011;35450;44.518;7.466;2024-01-07T01:13:32;4.15;;;1.58;;
49548;SDS011;35450;44.518;7.466;2024-01-07T01:16:36;2.83;;;0.90;;
49548;SDS011;35450;44.518;7.466;2024-01-07T01:19:40;5.03;;;1.50;;
49548;SDS011;35450;44.518;7.466;2024-01-07T01:22:44;1.75;;;1.30;;
49548;SDS011;35450;44.518;7.466;2024-01-07T01:25:48;2.20;;;1.58;;
49548;SDS011;35450;44.518;7.466;2024-01-07T01:28:52;4.53;;;1.13;;
49548;SDS011;35450;44.518;7.466;2024-01-07T01:31:57;1.42;;;0.73;;
49548;SDS011;35450;44.518;7.466;2024-01-07T01:35:01;1.65;;;1.00;;
49548;SDS011;35450;44.518;7.466;2024-01-07T01:38:05;1.85;;;0.70;;
49548;SDS011;35450;44.518;7.466;2024-01-07T01:41:08;2.08;;;0.85;;
49548;SDS011;35450;44.518;7.466;2024-01-07T01:44:12;4.40;;;1.88;;
49548;SDS011;35450;44.518;7.466;2024-01-07T01:47:16;2.63;;;1.00;;
49548;SDS011;35450;44.518;7.466;2024-01-07T01:50:21;5.32;;;1.45;;
49548;SDS011;35450;44.518;7.466;2024-01-07T01:53:25;2.45;;;0.90;;
49548;SDS011;35450;44.518;7.466;2024-01-07T01:56:30;0.82;;;0.57;;
49548;SDS011;35450;44.518;7.466;2024-01-07T01:59:34;1.77;;;0.70;;
49548;SDS011;35450;44.518;7.466;2024-01-07T02:02:39;1.30;;;0.80;;
49548;SDS011;35450;44.518;7.466;2024-01-07T02:05:43;1.75;;;1.02;;
49548;SDS011;35450;44.518;7.466;2024-01-07T02:08:48;3.35;;;0.80;;
49548;SDS011;35450;44.518;7.466;2024-01-07T02:12:02;2.20;;;0.88;;
49548;SDS011;35450;44.518;7.466;2024-01-07T02:15:07;4.00;;;0.60;;
49548;SDS011;35450;44.518;7.466;2024-01-07T02:18:11;1.67;;;0.65;;
49548;SDS011;35450;44.518;7.466;2024-01-07T02:21:16;2.00;;;0.52;;
49548;SDS011;35450;44.518;7.466;2024-01-07T02:24:20;1.60;;;0.77;;
49548;SDS011;35450;44.518;7.466;2024-01-07T02:27:24;1.80;;;0.68;;
49548;SDS011;35450;44.518;7.466;2024-01-07T02:30:28;3.90;;;1.13;;
49548;SDS011;35450;44.518;7.466;2024-01-07T02:33:33;1.05;;;0.55;;
49548;SDS011;35450;44.518;7.466;2024-01-07T02:36:37;2.88;;;1.23;;
49548;SDS011;35450;44.518;7.466;2024-01-07T02:39:40;4.05;;;0.82;;
49548;SDS011;35450;44.518;7.466;2024-01-07T02:42:45;2.50;;;0.80;;
49548;SDS011;35450;44.518;7.466;2024-01-07T02:45:49;2.55;;;0.90;;
49548;SDS011;35450;44.518;7.466;2024-01-07T02:48:53;3.83;;;0.90;;
49548;SDS011;35450;44.518;7.466;2024-01-07T02:51:57;3.47;;;1.15;;
49548;SDS011;35450;44.518;7.466;2024-01-07T02:55:01;2.22;;;1.20;;
49548;SDS011;35450;44.518;7.466;2024-01-07T02:58:05;4.13;;;1.67;;
49548;SDS011;35450;44.518;7.466;2024-01-07T03:01:09;2.05;;;1.10;;
49548;SDS011;35450;44.518;7.466;2024-01-07T03:04:15;2.95;;;1.40;;
49548;SDS011;35450;44.518;7.466;2024-01-07T03:07:19;2.10;;;1.13;;
49548;SDS011;35450;44.518;7.466;2024-01-07T03:10:23;3.15;;;1.40;;
49548;SDS011;35450;44.518;7.466;2024-01-07T03:13:27;2.38;;;0.98;;
49548;SDS011;35450;44.518;7.466;2024-01-07T03:16:31;3.70;;;1.85;;
49548;SDS011;35450;44.518;7.466;2024-01-07T03:19:35;1.58;;;0.90;;
49548;SDS011;35450;44.518;7.466;2024-01-07T03:22:41;2.28;;;1.35;;
49548;SDS011;35450;44.518;7.466;2024-01-07T03:25:45;1.83;;;0.88;;
49548;SDS011;35450;44.518;7.466;2024-01-07T03:28:48;2.75;;;0.98;;
49548;SDS011;35450;44.518;7.466;2024-01-07T03:31:53;1.65;;;0.63;;
49548;SDS011;35450;44.518;7.466;2024-01-07T03:34:57;1.73;;;0.80;;
49548;SDS011;35450;44.518;7.466;2024-01-07T03:38:01;0.68;;;0.30;;
49548;SDS011;35450;44.518;7.466;2024-01-07T03:41:05;0.88;;;0.40;;
49548;SDS011;35450;44.518;7.466;2024-01-07T03:44:09;0.93;;;0.50;;
49548;SDS011;35450;44.518;7.466;2024-01-07T03:47:13;3.40;;;0.77;;
49548;SDS011;35450;44.518;7.466;2024-01-07T03:50:17;2.63;;;1.10;;
49548;SDS011;35450;44.518;7.466;2024-01-07T03:53:21;2.25;;;1.38;;
49548;SDS011;35450;44.518;7.466;2024-01-07T03:56:25;2.85;;;1.38;;
49548;SDS011;35450;44.518;7.466;2024-01-07T03:59:29;1.10;;;0.45;;
49548;SDS011;35450;44.518;7.466;2024-01-07T04:02:33;2.20;;;0.50;;
49548;SDS011;35450;44.518;7.466;2024-01-07T04:05:37;0.50;;;0.30;;
49548;SDS011;35450;44.518;7.466;2024-01-07T04:08:41;0.52;;;0.20;;
49548;SDS011;35450;44.518;7.466;2024-01-07T04:11:45;1.42;;;0.50;;
49548;SDS011;35450;44.518;7.466;2024-01-07T04:14:50;1.42;;;0.80;;
49548;SDS011;35450;44.518;7.466;2024-01-07T04:17:54;3.53;;;0.82;;
49548;SDS011;35450;44.518;7.466;2024-01-07T04:20:58;3.17;;;0.90;;
49548;SDS011;35450;44.518;7.466;2024-01-07T04:24:02;1.88;;;1.08;;
49548;SDS011;35450;44.518;7.466;2024-01-07T04:27:06;1.13;;;0.60;;
49548;SDS011;35450;44.518;7.466;2024-01-07T04:30:10;1.75;;;0.50;;
49548;SDS011;35450;44.518;7.466;2024-01-07T04:33:14;0.77;;;0.40;;
49548;SDS011;35450;44.518;7.466;2024-01-07T04:36:18;3.90;;;0.30;;
49548;SDS011;35450;44.518;7.466;2024-01-07T04:39:22;2.13;;;0.65;;
49548;SDS011;35450;44.518;7.466;2024-01-07T04:42:26;1.77;;;0.60;;
49548;SDS011;35450;44.518;7.466;2024-01-07T04:45:30;4.22;;;0.60;;
49548;SDS011;35450;44.518;7.466;2024-01-07T04:48:34;3.00;;;0.57;;
49548;SDS011;35450;44.518;7.466;2024-01-07T04:51:38;0.30;;;0.20;;
49548;SDS011;35450;44.518;7.466;2024-01-07T04:54:42;0.77;;;0.40;;
49548;SDS011;35450;44.518;7.466;2024-01-07T04:57:46;0.98;;;0.45;;
49548;SDS011;35450;44.518;7.466;2024-01-07T05:00:50;2.08;;;0.40;;
49548;SDS011;35450;44.518;7.466;2024-01-07T05:03:54;0.63;;;0.30;;
49548;SDS011;35450;44.518;7.466;2024-01-07T05:06:58;0.47;;;0.30;;
49548;SDS011;35450;44.518;7.466;2024-01-07T05:10:02;2.72;;;0.20;;
49548;SDS011;35450;44.518;7.466;2024-01-07T05:13:06;1.92;;;0.40;;
49548;SDS011;35450;44.518;7.466;2024-01-07T05:16:20;0.50;;;0.30;;
49548;SDS011;35450;44.518;7.466;2024-01-07T05:19:24;0.40;;;0.30;;
49548;SDS011;35450;44.518;7.466;2024-01-07T05:22:28;0.50;;;0.30;;
49548;SDS011;35450;44.518;7.466;2024-01-07T05:25:32;0.65;;;0.38;;
49548;SDS011;35450;44.518;7.466;2024-01-07T05:28:36;0.50;;;0.30;;
49548;SDS011;35450;44.518;7.466;2024-01-07T05:31:41;0.57;;;0.40;;
49548;SDS011;35450;44.518;7.466;2024-01-07T05:34:45;0.68;;;0.50;;
49548;SDS011;35450;44.518;7.466;2024-01-07T05:37:49;3.13;;;0.65;;
49548;SDS011;35450;44.518;7.466;2024-01-07T05:40:53;1.50;;;0.43;;
49548;SDS011;35450;44.518;7.466;2024-01-07T05:43:57;0.50;;;0.30;;
49548;SDS011;35450;44.518;7.466;2024-01-07T05:47:00;0.45;;;0.30;;
49548;SDS011;35450;44.518;7.466;2024-01-07T05:50:05;1.00;;;0.63;;
49548;SDS011;35450;44.518;7.466;2024-01-07T05:53:09;0.50;;;0.28;;
49548;SDS011;35450;44.518;7.466;2024-01-07T05:56:13;1.75;;;0.30;;
49548;SDS011;35450;44.518;7.466;2024-01-07T05:59:17;3.45;;;0.32;;
49548;SDS011;35450;44.518;7.466;2024-01-07T06:02:21;2.17;;;0.65;;
49548;SDS011;35450;44.518;7.466;2024-01-07T06:05:26;0.82;;;0.50;;
49548;SDS011;35450;44.518;7.466;2024-01-07T06:08:30;0.85;;;0.40;;
49548;SDS011;35450;44.518;7.466;2024-01-07T06:11:34;1.20;;;0.60;;
49548;SDS011;35450;44.518;7.466;2024-01-07T06:14:37;1.83;;;0.50;;
49548;SDS011;35450;44.518;7.466;2024-01-07T06:17:41;0.90;;;0.50;;
49548;SDS011;35450;44.518;7.466;2024-01-07T06:20:45;0.68;;;0.50;;
49548;SDS011;35450;44.518;7.466;2024-01-07T06:23:50;1.00;;;0.50;;
49548;SDS011;35450;44.518;7.466;2024-01-07T06:26:53;1.67;;;0.63;;
49548;SDS011;35450;44.518;7.466;2024-01-07T06:29:57;2.10;;;0.77;;
49548;SDS011;35450;44.518;7.466;2024-01-07T06:33:01;2.67;;;1.10;;
49548;SDS011;35450;44.518;7.466;2024-01-07T06:36:05;4.97;;;3.03;;
49548;SDS011;35450;44.518;7.466;2024-01-07T06:39:09;4.15;;;1.88;;
49548;SDS011;35450;44.518;7.466;2024-01-07T06:42:14;3.35;;;0.73;;
49548;SDS011;35450;44.518;7.466;2024-01-07T06:45:17;1.95;;;0.90;;
49548;SDS011;35450;44.518;7.466;2024-01-07T06:48:21;4.70;;;1.63;;
49548;SDS011;35450;44.518;7.466;2024-01-07T06:51:26;14.65;;;5.82;;
49548;SDS011;35450;44.518;7.466;2024-01-07T06:54:30;21.98;;;9.98;;
49548;SDS011;35450;44.518;7.466;2024-01-07T06:57:34;10.85;;;4.55;;
49548;SDS011;35450;44.518;7.466;2024-01-07T07:00:38;7.32;;;2.45;;
49548;SDS011;35450;44.518;7.466;2024-01-07T07:03:42;3.72;;;0.90;;
49548;SDS011;35450;44.518;7.466;2024-01-07T07:06:47;4.10;;;0.82;;
49548;SDS011;35450;44.518;7.466;2024-01-07T07:09:51;3.58;;;0.50;;
49548;SDS011;35450;44.518;7.466;2024-01-07T07:12:55;6.53;;;0.93;;
49548;SDS011;35450;44.518;7.466;2024-01-07T07:16:00;1.92;;;0.75;;
49548;SDS011;35450;44.518;7.466;2024-01-07T07:19:03;0.60;;;0.40;;
49548;SDS011;35450;44.518;7.466;2024-01-07T07:22:07;2.22;;;0.88;;
49548;SDS011;35450;44.518;7.466;2024-01-07T07:25:12;4.05;;;1.60;;
49548;SDS011;35450;44.518;7.466;2024-01-07T07:28:15;4.47;;;1.90;;
49548;SDS011;35450;44.518;7.466;2024-01-07T07:31:22;3.45;;;1.75;;
49548;SDS011;35450;44.518;7.466;2024-01-07T07:34:26;4.70;;;1.40;;
49548;SDS011;35450;44.518;7.466;2024-01-07T07:37:30;3.08;;;1.23;;
49548;SDS011;35450;44.518;7.466;2024-01-07T07:40:34;2.72;;;1.40;;
49548;SDS011;35450;44.518;7.466;2024-01-07T07:43:38;2.15;;;1.15;;
49548;SDS011;35450;44.518;7.466;2024-01-07T07:46:42;4.32;;;2.15;;
49548;SDS011;35450;44.518;7.466;2024-01-07T07:49:46;3.08;;;2.13;;
49548;SDS011;35450;44.518;7.466;2024-01-07T07:52:50;3.90;;;2.40;;
49548;SDS011;35450;44.518;7.466;2024-01-07T07:55:54;3.70;;;1.77;;
49548;SDS011;35450;44.518;7.466;2024-01-07T07:58:58;2.00;;;1.52;;
49548;SDS011;35450;44.518;7.466;2024-01-07T08:02:02;4.97;;;1.40;;
49548;SDS011;35450;44.518;7.466;2024-01-07T08:05:07;5.57;;;2.58;;
49548;SDS011;35450;44.518;7.466;2024-01-07T08:08:11;5.35;;;2.30;;
49548;SDS011;35450;44.518;7.466;2024-01-07T08:11:15;3.22;;;2.22;;
49548;SDS011;35450;44.518;7.466;2024-01-07T08:14:19;2.72;;;1.73;;
49548;SDS011;35450;44.518;7.466;2024-01-07T08:17:23;5.32;;;2.13;;
49548;SDS011;35450;44.518;7.466;2024-01-07T08:20:27;11.48;;;2.40;;
49548;SDS011;35450;44.518;7.466;2024-01-07T08:23:31;7.88;;;3.47;;
49548;SDS011;35450;44.518;7.466;2024-01-07T08:26:36;14.05;;;5.50;;
49548;SDS011;35450;44.518;7.466;2024-01-07T08:29:42;21.13;;;8.70;;
49548;SDS011;35450;44.518;7.466;2024-01-07T08:32:47;18.70;;;8.65;;
49548;SDS011;35450;44.518;7.466;2024-01-07T08:35:51;8.60;;;4.88;;
49548;SDS011;35450;44.518;7.466;2024-01-07T08:38:55;13.38;;;5.85;;
49548;SDS011;35450;44.518;7.466;2024-01-07T08:41:59;12.85;;;5.03;;
49548;SDS011;35450;44.518;7.466;2024-01-07T08:45:03;13.88;;;5.55;;
49548;SDS011;35450;44.518;7.466;2024-01-07T08:48:08;8.07;;;4.78;;
49548;SDS011;35450;44.518;7.466;2024-01-07T08:51:13;10.75;;;6.45;;
49548;SDS011;35450;44.518;7.466;2024-01-07T08:54:17;13.50;;;6.22;;
49548;SDS011;35450;44.518;7.466;2024-01-07T08:57:20;10.25;;;6.18;;
49548;SDS011;35450;44.518;7.466;2024-01-07T09:00:25;10.43;;;4.55;;
49548;SDS011;35450;44.518;7.466;2024-01-07T09:03:30;7.38;;;4.03;;
49548;SDS011;35450;44.518;7.466;2024-01-07T09:06:33;17.67;;;3.60;;
49548;SDS011;35450;44.518;7.466;2024-01-07T09:09:37;6.68;;;4.18;;
49548;SDS011;35450;44.518;7.466;2024-01-07T09:12:41;7.88;;;5.43;;
49548;SDS011;35450;44.518;7.466;2024-01-07T09:15:45;13.50;;;9.20;;
49548;SDS011;35450;44.518;7.466;2024-01-07T09:18:50;5.97;;;3.00;;
49548;SDS011;35450;44.518;7.466;2024-01-07T09:21:54;8.70;;;2.40;;
49548;SDS011;35450;44.518;7.466;2024-01-07T09:24:58;10.65;;;4.45;;
49548;SDS011;35450;44.518;7.466;2024-01-07T09:28:02;16.45;;;9.23;;
49548;SDS011;35450;44.518;7.466;2024-01-07T09:31:07;10.57;;;6.25;;
49548;SDS011;35450;44.518;7.466;2024-01-07T09:34:11;9.90;;;6.60;;
49548;SDS011;35450;44.518;7.466;2024-01-07T09:37:16;10.25;;;5.93;;
49548;SDS011;35450;44.518;7.466;2024-01-07T09:40:20;12.73;;;7.25;;
49548;SDS011;35450;44.518;7.466;2024-01-07T09:43:24;7.32;;;4.47;;
49548;SDS011;35450;44.518;7.466;2024-01-07T09:46:28;5.70;;;3.33;;
49548;SDS011;35450;44.518;7.466;2024-01-07T09:49:34;3.80;;;2.47;;
49548;SDS011;35450;44.518;7.466;2024-01-07T09:52:38;2.65;;;1.50;;
49548;SDS011;35450;44.518;7.466;2024-01-07T09:56:07;4.43;;;2.28;;
49548;SDS011;35450;44.518;7.466;2024-01-07T09:59:23;3.95;;;2.20;;
49548;SDS011;35450;44.518;7.466;2024-01-07T10:02:27;5.45;;;3.10;;
49548;SDS011;35450;44.518;7.466;2024-01-07T10:05:32;3.83;;;1.90;;
49548;SDS011;35450;44.518;7.466;2024-01-07T10:08:35;3.45;;;1.70;;
49548;SDS011;35450;44.518;7.466;2024-01-07T10:11:40;5.03;;;2.00;;
49548;SDS011;35450;44.518;7.466;2024-01-07T10:14:45;5.90;;;2.60;;
49548;SDS011;35450;44.518;7.466;2024-01-07T10:17:49;7.47;;;3.45;;
49548;SDS011;35450;44.518;7.466;2024-01-07T10:21:01;7.13;;;3.53;;
49548;SDS011;35450;44.518;7.466;2024-01-07T10:24:07;1.33;;;0.68;;
49548;SDS011;35450;44.518;7.466;2024-01-07T10:27:15;1.05;;;0.80;;
49548;SDS011;35450;44.518;7.466;2024-01-07T10:30:19;5.70;;;2.55;;
49548;SDS011;35450;44.518;7.466;2024-01-07T10:33:25;5.85;;;3.58;;
49548;SDS011;35450;44.518;7.466;2024-01-07T10:36:33;2.25;;;1.40;;
49548;SDS011;35450;44.518;7.466;2024-01-07T10:39:37;1.70;;;0.90;;
49548;SDS011;35450;44.518;7.466;2024-01-07T10:42:42;0.50;;;0.30;;
49548;SDS011;35450;44.518;7.466;2024-01-07T10:45:47;1.67;;;1.02;;
49548;SDS011;35450;44.518;7.466;2024-01-07T10:48:55;3.78;;;1.80;;
49548;SDS011;35450;44.518;7.466;2024-01-07T10:52:04;11.30;;;3.33;;
49548;SDS011;35450;44.518;7.466;2024-01-07T10:55:09;5.40;;;2.28;;
49548;SDS011;35450;44.518;7.466;2024-01-07T10:58:14;4.70;;;1.30;;
49548;SDS011;35450;44.518;7.466;2024-01-07T11:01:19;2.33;;;0.88;;
49548;SDS011;35450;44.518;7.466;2024-01-07T11:04:43;1.63;;;1.02;;
49548;SDS011;35450;44.518;7.466;2024-01-07T11:08:13;4.30;;;1.88;;
49548;SDS011;35450;44.518;7.466;2024-01-07T11:11:25;6.25;;;1.80;;
49548;SDS011;35450;44.518;7.466;2024-01-07T11:14:35;5.28;;;1.52;;
49548;SDS011;35450;44.518;7.466;2024-01-07T11:17:50;1.27;;;0.80;;
49548;SDS011;35450;44.518;7.466;2024-01-07T11:20:54;2.50;;;0.80;;
49548;SDS011;35450;44.518;7.466;2024-01-07T11:24:04;2.35;;;1.10;;
49548;SDS011;35450;44.518;7.466;2024-01-07T11:27:08;2.97;;;1.65;;
49548;SDS011;35450;44.518;7.466;2024-01-07T11:30:19;1.90;;;1.00;;
49548;SDS011;35450;44.518;7.466;2024-01-07T11:33:23;1.75;;;0.73;;
49548;SDS011;35450;44.518;7.466;2024-01-07T11:36:36;1.00;;;0.52;;
49548;SDS011;35450;44.518;7.466;2024-01-07T11:39:44;0.68;;;0.47;;
49548;SDS011;35450;44.518;7.466;2024-01-07T11:42:48;0.55;;;0.30;;
49548;SDS011;35450;44.518;7.466;2024-01-07T11:45:55;1.27;;;0.40;;
49548;SDS011;35450;44.518;7.466;2024-01-07T11:48:59;0.20;;;0.20;;
49548;SDS011;35450;44.518;7.466;2024-01-07T11:52:04;1.60;;;0.30;;
49548;SDS011;35450;44.518;7.466;2024-01-07T11:55:08;1.70;;;0.63;;
49548;SDS011;35450;44.518;7.466;2024-01-07T11:58:14;0.98;;;0.60;;
49548;SDS011;35450;44.518;7.466;2024-01-07T12:01:18;1.50;;;0.82;;
49548;SDS011;35450;44.518;7.466;2024-01-07T12:04:23;1.83;;;1.13;;
49548;SDS011;35450;44.518;7.466;2024-01-07T12:07:26;4.53;;;2.58;;
49548;SDS011;35450;44.518;7.466;2024-01-07T12:10:31;1.88;;;1.52;;
49548;SDS011;35450;44.518;7.466;2024-01-07T12:13:41;1.58;;;1.02;;
49548;SDS011;35450;44.518;7.466;2024-01-07T12:16:49;3.35;;;2.40;;
49548;SDS011;35450;44.518;7.466;2024-01-07T12:19:53;3.50;;;1.40;;
49548;SDS011;35450;44.518;7.466;2024-01-07T12:23:08;10.32;;;5.18;;
49548;SDS011;35450;44.518;7.466;2024-01-07T12:26:13;4.47;;;2.50;;
49548;SDS011;35450;44.518;7.466;2024-01-07T12:29:29;9.85;;;2.22;;
49548;SDS011;35450;44.518;7.466;2024-01-07T12:32:33;0.82;;;0.60;;
49548;SDS011;35450;44.518;7.466;2024-01-07T12:35:42;1.65;;;1.25;;
49548;SDS011;35450;44.518;7.466;2024-01-07T12:38:49;3.53;;;1.73;;
49548;SDS011;35450;44.518;7.466;2024-01-07T12:41:54;3.45;;;2.40;;
49548;SDS011;35450;44.518;7.466;2024-01-07T12:45:00;4.63;;;2.60;;
49548;SDS011;35450;44.518;7.466;2024-01-07T12:48:07;5.70;;;2.92;;
49548;SDS011;35450;44.518;7.466;2024-01-07T12:51:11;6.28;;;2.88;;
49548;SDS011;35450;44.518;7.466;2024-01-07T12:54:15;2.75;;;1.48;;
49548;SDS011;35450;44.518;7.466;2024-01-07T12:57:19;9.50;;;2.20;;
49548;SDS011;35450;44.518;7.466;2024-01-07T13:00:23;1.98;;;1.27;;
49548;SDS011;35450;44.518;7.466;2024-01-07T13:03:28;0.95;;;0.70;;
49548;SDS011;35450;44.518;7.466;2024-01-07T13:06:33;1.17;;;0.60;;
49548;SDS011;35450;44.518;7.466;2024-01-07T13:09:37;0.40;;;0.30;;
49548;SDS011;35450;44.518;7.466;2024-01-07T13:12:41;3.00;;;0.65;;
49548;SDS011;35450;44.518;7.466;2024-01-07T13:15:46;1.45;;;1.00;;
49548;SDS011;35450;44.518;7.466;2024-01-07T13:18:50;2.67;;;1.10;;
49548;SDS011;35450;44.518;7.466;2024-01-07T13:21:53;7.43;;;0.68;;
49548;SDS011;35450;44.518;7.466;2024-01-07T13:25:01;0.63;;;0.38;;
49548;SDS011;35450;44.518;7.466;2024-01-07T13:28:05;3.83;;;1.48;;
49548;SDS011;35450;44.518;7.466;2024-01-07T13:31:13;3.20;;;1.38;;
49548;SDS011;35450;44.518;7.466;2024-01-07T13:34:18;2.42;;;1.17;;
49548;SDS011;35450;44.518;7.466;2024-01-07T13:37:25;3.45;;;2.28;;
49548;SDS011;35450;44.518;7.466;2024-01-07T13:40:29;3.63;;;2.05;;
49548;SDS011;35450;44.518;7.466;2024-01-07T13:43:38;2.97;;;0.80;;
49548;SDS011;35450;44.518;7.466;2024-01-07T13:46:49;0.88;;;0.82;;
49548;SDS011;35450;44.518;7.466;2024-01-07T13:49:55;2.05;;;1.08;;
49548;SDS011;35450;44.518;7.466;2024-01-07T13:53:02;1.73;;;1.15;;
49548;SDS011;35450;44.518;7.466;2024-01-07T13:56:09;2.20;;;0.70;;
49548;SDS011;35450;44.518;7.466;2024-01-07T13:59:16;3.13;;;0.65;;
49548;SDS011;35450;44.518;7.466;2024-01-07T14:02:21;2.92;;;1.92;;
49548;SDS011;35450;44.518;7.466;2024-01-07T14:05:25;2.75;;;1.50;;
49548;SDS011;35450;44.518;7.466;2024-01-07T14:08:29;3.50;;;2.00;;
49548;SDS011;35450;44.518;7.466;2024-01-07T14:11:33;3.25;;;1.95;;
49548;SDS011;35450;44.518;7.466;2024-01-07T14:14:38;2.40;;;0.93;;
49548;SDS011;35450;44.518;7.466;2024-01-07T14:17:42;28.98;;;10.40;;
49548;SDS011;35450;44.518;7.466;2024-01-07T14:20:46;10.77;;;3.33;;
49548;SDS011;35450;44.518;7.466;2024-01-07T14:23:50;2.92;;;1.25;;
49548;SDS011;35450;44.518;7.466;2024-01-07T14:26:55;2.65;;;1.45;;
49548;SDS011;35450;44.518;7.466;2024-01-07T14:29:59;5.68;;;2.83;;
49548;SDS011;35450;44.518;7.466;2024-01-07T14:33:03;8.93;;;3.00;;
49548;SDS011;35450;44.518;7.466;2024-01-07T14:36:08;6.95;;;3.10;;
49548;SDS011;35450;44.518;7.466;2024-01-07T14:39:19;8.48;;;3.88;;
49548;SDS011;35450;44.518;7.466;2024-01-07T14:42:23;11.82;;;4.43;;
49548;SDS011;35450;44.518;7.466;2024-01-07T14:45:27;5.25;;;2.92;;
49548;SDS011;35450;44.518;7.466;2024-01-07T14:48:31;5.18;;;2.08;;
49548;SDS011;35450;44.518;7.466;2024-01-07T14:51:35;4.05;;;2.10;;
49548;SDS011;35450;44.518;7.466;2024-01-07T14:54:40;3.97;;;2.20;;
49548;SDS011;35450;44.518;7.466;2024-01-07T14:57:43;3.72;;;2.00;;
49548;SDS011;35450;44.518;7.466;2024-01-07T15:00:47;3.85;;;2.63;;
49548;SDS011;35450;44.518;7.466;2024-01-07T15:03:51;6.40;;;1.70;;
49548;SDS011;35450;44.518;7.466;2024-01-07T15:06:57;6.15;;;2.22;;
49548;SDS011;35450;44.518;7.466;2024-01-07T15:10:02;2.92;;;2.13;;
49548;SDS011;35450;44.518;7.466;2024-01-07T15:13:06;3.47;;;2.15;;
49548;SDS011;35450;44.518;7.466;2024-01-07T15:16:10;8.43;;;2.40;;
49548;SDS011;35450;44.518;7.466;2024-01-07T15:19:14;10.80;;;3.78;;
49548;SDS011;35450;44.518;7.466;2024-01-07T15:22:18;7.60;;;3.33;;
49548;SDS011;35450;44.518;7.466;2024-01-07T15:25:21;7.30;;;2.40;;
49548;SDS011;35450;44.518;7.466;2024-01-07T15:28:25;8.70;;;3.58;;
49548;SDS011;35450;44.518;7.466;2024-01-07T15:31:29;5.15;;;3.03;;
49548;SDS011;35450;44.518;7.466;2024-01-07T15:34:33;6.00;;;3.03;;
49548;SDS011;35450;44.518;7.466;2024-01-07T15:37:37;4.90;;;2.17;;
49548;SDS011;35450;44.518;7.466;2024-01-07T15:40:41;2.92;;;1.77;;
49548;SDS011;35450;44.518;7.466;2024-01-07T15:43:45;2.90;;;1.92;;
49548;SDS011;35450;44.518;7.466;2024-01-07T15:46:49;8.15;;;3.20;;
49548;SDS011;35450;44.518;7.466;2024-01-07T15:49:53;6.40;;;3.08;;
49548;SDS011;35450;44.518;7.466;2024-01-07T15:52:57;9.43;;;3.97;;
49548;SDS011;35450;44.518;7.466;2024-01-07T15:56:02;15.85;;;8.57;;
49548;SDS011;35450;44.518;7.466;2024-01-07T15:59:08;21.83;;;10.18;;
49548;SDS011;35450;44.518;7.466;2024-01-07T16:02:18;12.80;;;6.03;;
49548;SDS011;35450;44.518;7.466;2024-01-07T16:05:25;6.13;;;3.63;;
49548;SDS011;35450;44.518;7.466;2024-01-07T16:08:37;6.47;;;2.58;;
49548;SDS011;35450;44.518;7.466;2024-01-07T16:11:46;3.38;;;1.80;;
49548;SDS011;35450;44.518;7.466;2024-01-07T16:15:02;3.47;;;1.33;;
49548;SDS011;35450;44.518;7.466;2024-01-07T16:18:11;7.35;;;4.63;;
49548;SDS011;35450;44.518;7.466;2024-01-07T16:21:27;10.38;;;5.07;;
49548;SDS011;35450;44.518;7.466;2024-01-07T16:24:39;20.02;;;8.30;;
49548;SDS011;35450;44.518;7.466;2024-01-07T16:27:51;24.55;;;11.88;;
49548;SDS011;35450;44.518;7.466;2024-01-07T16:30:55;29.70;;;14.07;;
49548;SDS011;35450;44.518;7.466;2024-01-07T16:34:02;49.00;;;16.88;;
49548;SDS011;35450;44.518;7.466;2024-01-07T16:37:06;8.88;;;2.88;;
49548;SDS011;35450;44.518;7.466;2024-01-07T16:40:10;2.45;;;1.60;;
49548;SDS011;35450;44.518;7.466;2024-01-07T16:43:19;4.53;;;2.90;;
49548;SDS011;35450;44.518;7.466;2024-01-07T16:46:24;3.97;;;2.90;;
49548;SDS011;35450;44.518;7.466;2024-01-07T16:49:28;6.15;;;2.65;;
49548;SDS011;35450;44.518;7.466;2024-01-07T16:52:32;5.30;;;3.50;;
49548;SDS011;35450;44.518;7.466;2024-01-07T16:55:36;9.40;;;4.32;;
49548;SDS011;35450;44.518;7.466;2024-01-07T16:58:42;7.10;;;4.05;;
49548;SDS011;35450;44.518;7.466;2024-01-07T17:01:47;8.73;;;4.43;;
49548;SDS011;35450;44.518;7.466;2024-01-07T17:04:51;14.57;;;5.93;;
49548;SDS011;35450;44.518;7.466;2024-01-07T17:07:54;11.10;;;6.95;;
49548;SDS011;35450;44.518;7.466;2024-01-07T17:10:58;12.45;;;5.68;;
49548;SDS011;35450;44.518;7.466;2024-01-07T17:14:03;9.57;;;5.18;;
49548;SDS011;35450;44.518;7.466;2024-01-07T17:17:07;8.20;;;4.05;;
49548;SDS011;35450;44.518;7.466;2024-01-07T17:20:11;15.43;;;3.67;;
49548;SDS011;35450;44.518;7.466;2024-01-07T17:23:15;13.57;;;4.47;;
49548;SDS011;35450;44.518;7.466;2024-01-07T17:26:24;15.88;;;4.82;;
49548;SDS011;35450;44.518;7.466;2024-01-07T17:29:28;5.63;;;2.55;;
49548;SDS011;35450;44.518;7.466;2024-01-07T17:32:32;14.07;;;2.00;;
49548;SDS011;35450;44.518;7.466;2024-01-07T17:35:37;8.82;;;2.45;;
49548;SDS011;35450;44.518;7.466;2024-01-07T17:38:45;11.43;;;6.00;;
49548;SDS011;35450;44.518;7.466;2024-01-07T17:41:56;12.43;;;6.72;;
49548;SDS011;35450;44.518;7.466;2024-01-07T17:45:12;10.07;;;5.93;;
49548;SDS011;35450;44.518;7.466;2024-01-07T17:48:22;13.57;;;6.63;;
49548;SDS011;35450;44.518;7.466;2024-01-07T17:51:29;25.83;;;12.57;;
49548;SDS011;35450;44.518;7.466;2024-01-07T17:54:35;8.07;;;5.50;;
49548;SDS011;35450;44.518;7.466;2024-01-07T17:57:45;14.88;;;7.57;;
49548;SDS011;35450;44.518;7.466;2024-01-07T18:00:50;4.18;;;2.10;;
49548;SDS011;35450;44.518;7.466;2024-01-07T18:03:55;2.78;;;0.90;;
49548;SDS011;35450;44.518;7.466;2024-01-07T18:06:59;2.20;;;0.60;;
49548;SDS011;35450;44.518;7.466;2024-01-07T18:10:03;1.35;;;0.80;;
49548;SDS011;35450;44.518;7.466;2024-01-07T18:13:13;2.70;;;0.98;;
49548;SDS011;35450;44.518;7.466;2024-01-07T18:16:19;6.10;;;3.60;;
49548;SDS011;35450;44.518;7.466;2024-01-07T18:19:23;4.50;;;1.25;;
49548;SDS011;35450;44.518;7.466;2024-01-07T18:22:27;0.30;;;0.30;;
49548;SDS011;35450;44.518;7.466;2024-01-07T18:25:34;0.60;;;0.30;;
49548;SDS011;35450;44.518;7.466;2024-01-07T18:28:38;2.78;;;2.20;;
49548;SDS011;35450;44.518;7.466;2024-01-07T18:31:47;1.40;;;0.30;;
49548;SDS011;35450;44.518;7.466;2024-01-07T18:34:51;0.20;;;0.20;;